Waterdown, Canada
Current Conditions -  °F | °C
As of 5:00 PM on Tuesday 21 Oct 2014 (Local Time) from CYHM Reporting Station
Rain Showers Rain Showers  
Wind Chill: 37°   Ceiling: 1200
Heat Index: 45°   Visibility: 1.7mi
Dew Point: 43°   Wind: 16mph
Humidity: 93%   Direction: 10°N
Pressure: 29.98"   Gusts: NA
Location:  43.33°N, 79.88°W
Report Text: CYHM 212100Z 01014KT 1 3/4SM -SHRA BR OVC012 07/06 A2998 RMK SC8 SLP157
Loading
Personal Weather Stations






























Interactive Weather Map
Tropical Storm Tracking
New forecast layout! Learn more

10-Day Weather Forecast

Advertisements
Track Severe Weather on mobile